sensor_id;sensor_type;location;lat;lon;timestamp;P1;durP1;ratioP1;P2;durP2;ratioP2
57832;SDS011;43667;53.036;6.740;2024-01-15T00:02:01;22.67;;;2.33;;
57832;SDS011;43667;53.036;6.740;2024-01-15T00:04:28;15.32;;;2.30;;
57832;SDS011;43667;53.036;6.740;2024-01-15T00:06:54;27.98;;;4.30;;
57832;SDS011;43667;53.036;6.740;2024-01-15T00:09:20;16.58;;;2.63;;
57832;SDS011;43667;53.036;6.740;2024-01-15T00:11:46;19.38;;;2.28;;
57832;SDS011;43667;53.036;6.740;2024-01-15T00:14:12;15.10;;;2.50;;
57832;SDS011;43667;53.036;6.740;2024-01-15T00:16:40;14.93;;;2.22;;
57832;SDS011;43667;53.036;6.740;2024-01-15T00:19:06;15.38;;;2.42;;
57832;SDS011;43667;53.036;6.740;2024-01-15T00:21:32;15.40;;;3.03;;
57832;SDS011;43667;53.036;6.740;2024-01-15T00:23:58;17.23;;;2.17;;
57832;SDS011;43667;53.036;6.740;2024-01-15T00:26:24;24.35;;;3.35;;
57832;SDS011;43667;53.036;6.740;2024-01-15T00:28:50;13.32;;;2.38;;
57832;SDS011;43667;53.036;6.740;2024-01-15T00:31:16;15.57;;;2.45;;
57832;SDS011;43667;53.036;6.740;2024-01-15T00:33:43;20.02;;;2.88;;
57832;SDS011;43667;53.036;6.740;2024-01-15T00:36:09;18.83;;;2.80;;
57832;SDS011;43667;53.036;6.740;2024-01-15T00:38:35;22.00;;;3.25;;
57832;SDS011;43667;53.036;6.740;2024-01-15T00:41:01;19.73;;;1.70;;
57832;SDS011;43667;53.036;6.740;2024-01-15T00:43:28;11.82;;;1.80;;
57832;SDS011;43667;53.036;6.740;2024-01-15T00:45:54;14.50;;;2.38;;
57832;SDS011;43667;53.036;6.740;2024-01-15T00:48:20;14.77;;;1.85;;
57832;SDS011;43667;53.036;6.740;2024-01-15T00:50:46;13.23;;;1.40;;
57832;SDS011;43667;53.036;6.740;2024-01-15T00:53:12;13.75;;;1.75;;
57832;SDS011;43667;53.036;6.740;2024-01-15T00:55:38;11.07;;;1.10;;
57832;SDS011;43667;53.036;6.740;2024-01-15T00:58:04;11.02;;;1.30;;
57832;SDS011;43667;53.036;6.740;2024-01-15T01:00:30;14.00;;;1.30;;
57832;SDS011;43667;53.036;6.740;2024-01-15T01:02:56;17.42;;;2.92;;
57832;SDS011;43667;53.036;6.740;2024-01-15T01:05:22;16.63;;;2.00;;
57832;SDS011;43667;53.036;6.740;2024-01-15T01:07:48;15.68;;;2.00;;
57832;SDS011;43667;53.036;6.740;2024-01-15T01:10:14;13.10;;;1.85;;
57832;SDS011;43667;53.036;6.740;2024-01-15T01:12:40;21.60;;;3.10;;
57832;SDS011;43667;53.036;6.740;2024-01-15T01:15:06;19.67;;;3.00;;
57832;SDS011;43667;53.036;6.740;2024-01-15T01:17:33;15.95;;;1.67;;
57832;SDS011;43667;53.036;6.740;2024-01-15T01:19:59;18.02;;;1.85;;
57832;SDS011;43667;53.036;6.740;2024-01-15T01:22:25;8.88;;;1.50;;
57832;SDS011;43667;53.036;6.740;2024-01-15T01:24:51;14.50;;;1.65;;
57832;SDS011;43667;53.036;6.740;2024-01-15T01:27:17;15.85;;;1.80;;
57832;SDS011;43667;53.036;6.740;2024-01-15T01:29:42;13.10;;;2.05;;
57832;SDS011;43667;53.036;6.740;2024-01-15T01:32:08;20.58;;;2.22;;
57832;SDS011;43667;53.036;6.740;2024-01-15T01:34:39;13.65;;;2.13;;
57832;SDS011;43667;53.036;6.740;2024-01-15T01:37:06;18.63;;;2.03;;
57832;SDS011;43667;53.036;6.740;2024-01-15T01:39:32;23.70;;;2.25;;
57832;SDS011;43667;53.036;6.740;2024-01-15T01:41:58;19.15;;;1.95;;
57832;SDS011;43667;53.036;6.740;2024-01-15T01:44:24;12.48;;;2.42;;
57832;SDS011;43667;53.036;6.740;2024-01-15T01:46:50;19.35;;;2.30;;
57832;SDS011;43667;53.036;6.740;2024-01-15T01:49:16;21.15;;;2.70;;
57832;SDS011;43667;53.036;6.740;2024-01-15T01:51:43;11.25;;;1.90;;
57832;SDS011;43667;53.036;6.740;2024-01-15T01:54:09;17.45;;;2.10;;
57832;SDS011;43667;53.036;6.740;2024-01-15T01:56:37;16.48;;;1.80;;
57832;SDS011;43667;53.036;6.740;2024-01-15T01:59:03;12.25;;;1.80;;
57832;SDS011;43667;53.036;6.740;2024-01-15T02:01:31;20.20;;;2.58;;
57832;SDS011;43667;53.036;6.740;2024-01-15T02:03:57;17.65;;;1.88;;
57832;SDS011;43667;53.036;6.740;2024-01-15T02:06:23;14.70;;;2.05;;
57832;SDS011;43667;53.036;6.740;2024-01-15T02:08:50;15.45;;;1.73;;
57832;SDS011;43667;53.036;6.740;2024-01-15T02:11:16;15.77;;;1.85;;
57832;SDS011;43667;53.036;6.740;2024-01-15T02:13:42;14.13;;;1.73;;
57832;SDS011;43667;53.036;6.740;2024-01-15T02:16:08;16.30;;;1.65;;
57832;SDS011;43667;53.036;6.740;2024-01-15T02:18:41;11.65;;;1.40;;
57832;SDS011;43667;53.036;6.740;2024-01-15T02:21:07;14.18;;;2.63;;
57832;SDS011;43667;53.036;6.740;2024-01-15T02:23:33;11.05;;;1.38;;
57832;SDS011;43667;53.036;6.740;2024-01-15T02:25:59;13.02;;;1.20;;
57832;SDS011;43667;53.036;6.740;2024-01-15T02:28:25;6.13;;;1.35;;
57832;SDS011;43667;53.036;6.740;2024-01-15T02:30:51;13.05;;;1.63;;
57832;SDS011;43667;53.036;6.740;2024-01-15T02:33:17;14.85;;;1.17;;
57832;SDS011;43667;53.036;6.740;2024-01-15T02:35:43;11.27;;;1.60;;
57832;SDS011;43667;53.036;6.740;2024-01-15T02:38:11;8.32;;;1.10;;
57832;SDS011;43667;53.036;6.740;2024-01-15T02:40:38;13.13;;;1.70;;
57832;SDS011;43667;53.036;6.740;2024-01-15T02:43:04;13.80;;;1.35;;
57832;SDS011;43667;53.036;6.740;2024-01-15T02:45:30;14.23;;;1.70;;
57832;SDS011;43667;53.036;6.740;2024-01-15T02:47:56;13.63;;;1.58;;
57832;SDS011;43667;53.036;6.740;2024-01-15T02:50:22;10.98;;;1.73;;
57832;SDS011;43667;53.036;6.740;2024-01-15T02:52:48;17.90;;;3.45;;
57832;SDS011;43667;53.036;6.740;2024-01-15T02:55:14;15.43;;;2.35;;
57832;SDS011;43667;53.036;6.740;2024-01-15T02:57:40;14.35;;;2.08;;
57832;SDS011;43667;53.036;6.740;2024-01-15T03:00:06;24.40;;;2.63;;
57832;SDS011;43667;53.036;6.740;2024-01-15T03:02:32;18.27;;;2.47;;
57832;SDS011;43667;53.036;6.740;2024-01-15T03:04:59;15.65;;;2.42;;
57832;SDS011;43667;53.036;6.740;2024-01-15T03:07:25;25.58;;;2.75;;
57832;SDS011;43667;53.036;6.740;2024-01-15T03:09:51;25.92;;;2.90;;
57832;SDS011;43667;53.036;6.740;2024-01-15T03:12:17;21.50;;;2.65;;
57832;SDS011;43667;53.036;6.740;2024-01-15T03:14:43;19.75;;;2.75;;
57832;SDS011;43667;53.036;6.740;2024-01-15T03:17:09;23.30;;;3.47;;
57832;SDS011;43667;53.036;6.740;2024-01-15T03:19:36;17.02;;;1.92;;
57832;SDS011;43667;53.036;6.740;2024-01-15T03:22:02;17.77;;;2.25;;
57832;SDS011;43667;53.036;6.740;2024-01-15T03:24:28;20.70;;;4.18;;
57832;SDS011;43667;53.036;6.740;2024-01-15T03:26:55;21.58;;;2.65;;
57832;SDS011;43667;53.036;6.740;2024-01-15T03:29:21;20.33;;;2.38;;
57832;SDS011;43667;53.036;6.740;2024-01-15T03:31:47;23.40;;;2.20;;
57832;SDS011;43667;53.036;6.740;2024-01-15T03:34:13;23.50;;;3.17;;
57832;SDS011;43667;53.036;6.740;2024-01-15T03:36:39;22.85;;;3.05;;
57832;SDS011;43667;53.036;6.740;2024-01-15T03:39:05;17.33;;;2.60;;
57832;SDS011;43667;53.036;6.740;2024-01-15T03:41:32;22.05;;;3.58;;
57832;SDS011;43667;53.036;6.740;2024-01-15T03:43:58;20.63;;;2.47;;
57832;SDS011;43667;53.036;6.740;2024-01-15T03:46:24;20.52;;;2.55;;
57832;SDS011;43667;53.036;6.740;2024-01-15T03:48:50;18.48;;;2.08;;
57832;SDS011;43667;53.036;6.740;2024-01-15T03:51:17;26.25;;;2.90;;
57832;SDS011;43667;53.036;6.740;2024-01-15T03:53:43;29.45;;;3.40;;
57832;SDS011;43667;53.036;6.740;2024-01-15T03:56:09;22.90;;;2.75;;
57832;SDS011;43667;53.036;6.740;2024-01-15T03:58:35;23.50;;;3.08;;
57832;SDS011;43667;53.036;6.740;2024-01-15T04:01:01;27.50;;;3.20;;
57832;SDS011;43667;53.036;6.740;2024-01-15T04:03:28;18.48;;;2.42;;
57832;SDS011;43667;53.036;6.740;2024-01-15T04:05:54;28.17;;;3.28;;
57832;SDS011;43667;53.036;6.740;2024-01-15T04:08:20;22.67;;;3.30;;
57832;SDS011;43667;53.036;6.740;2024-01-15T04:10:46;26.80;;;3.30;;
57832;SDS011;43667;53.036;6.740;2024-01-15T04:13:12;23.08;;;2.95;;
57832;SDS011;43667;53.036;6.740;2024-01-15T04:15:38;23.85;;;3.67;;
57832;SDS011;43667;53.036;6.740;2024-01-15T04:18:04;23.20;;;3.00;;
57832;SDS011;43667;53.036;6.740;2024-01-15T04:20:30;19.75;;;2.60;;
57832;SDS011;43667;53.036;6.740;2024-01-15T04:22:56;20.45;;;2.90;;
57832;SDS011;43667;53.036;6.740;2024-01-15T04:25:22;21.98;;;2.33;;
57832;SDS011;43667;53.036;6.740;2024-01-15T04:27:48;12.50;;;1.80;;
57832;SDS011;43667;53.036;6.740;2024-01-15T04:30:14;19.33;;;2.40;;
57832;SDS011;43667;53.036;6.740;2024-01-15T04:32:40;17.27;;;2.00;;
57832;SDS011;43667;53.036;6.740;2024-01-15T04:35:06;11.15;;;1.85;;
57832;SDS011;43667;53.036;6.740;2024-01-15T04:37:32;13.55;;;2.20;;
57832;SDS011;43667;53.036;6.740;2024-01-15T04:39:58;18.58;;;2.65;;
57832;SDS011;43667;53.036;6.740;2024-01-15T04:42:24;13.45;;;2.20;;
57832;SDS011;43667;53.036;6.740;2024-01-15T04:44:51;12.38;;;1.40;;
57832;SDS011;43667;53.036;6.740;2024-01-15T04:47:17;11.15;;;1.52;;
57832;SDS011;43667;53.036;6.740;2024-01-15T04:49:43;13.63;;;1.73;;
57832;SDS011;43667;53.036;6.740;2024-01-15T04:52:09;12.13;;;1.40;;
57832;SDS011;43667;53.036;6.740;2024-01-15T04:54:35;10.68;;;1.20;;
57832;SDS011;43667;53.036;6.740;2024-01-15T04:57:01;11.52;;;2.00;;
57832;SDS011;43667;53.036;6.740;2024-01-15T04:59:28;11.05;;;1.20;;
57832;SDS011;43667;53.036;6.740;2024-01-15T05:01:54;7.22;;;1.08;;
57832;SDS011;43667;53.036;6.740;2024-01-15T05:04:20;8.95;;;1.10;;
57832;SDS011;43667;53.036;6.740;2024-01-15T05:06:47;7.40;;;1.63;;
57832;SDS011;43667;53.036;6.740;2024-01-15T05:09:13;10.88;;;1.42;;
57832;SDS011;43667;53.036;6.740;2024-01-15T05:11:39;9.15;;;1.05;;
57832;SDS011;43667;53.036;6.740;2024-01-15T05:14:05;10.55;;;1.20;;
57832;SDS011;43667;53.036;6.740;2024-01-15T05:16:31;13.73;;;1.27;;
57832;SDS011;43667;53.036;6.740;2024-01-15T05:18:57;5.72;;;0.88;;
57832;SDS011;43667;53.036;6.740;2024-01-15T05:21:23;8.20;;;1.10;;
57832;SDS011;43667;53.036;6.740;2024-01-15T05:23:49;7.72;;;1.02;;
57832;SDS011;43667;53.036;6.740;2024-01-15T05:26:15;8.98;;;1.10;;
57832;SDS011;43667;53.036;6.740;2024-01-15T05:28:41;9.45;;;0.93;;
57832;SDS011;43667;53.036;6.740;2024-01-15T05:31:08;12.88;;;1.10;;
57832;SDS011;43667;53.036;6.740;2024-01-15T05:33:34;10.95;;;1.50;;
57832;SDS011;43667;53.036;6.740;2024-01-15T05:36:00;8.70;;;1.60;;
57832;SDS011;43667;53.036;6.740;2024-01-15T05:38:27;9.45;;;1.80;;
57832;SDS011;43667;53.036;6.740;2024-01-15T05:40:53;8.60;;;1.30;;
57832;SDS011;43667;53.036;6.740;2024-01-15T05:43:19;10.25;;;1.20;;
57832;SDS011;43667;53.036;6.740;2024-01-15T05:45:45;12.38;;;1.08;;
57832;SDS011;43667;53.036;6.740;2024-01-15T05:48:12;8.30;;;1.23;;
57832;SDS011;43667;53.036;6.740;2024-01-15T05:50:38;6.75;;;1.23;;
57832;SDS011;43667;53.036;6.740;2024-01-15T05:53:04;7.10;;;1.08;;
57832;SDS011;43667;53.036;6.740;2024-01-15T05:55:30;6.72;;;1.15;;
57832;SDS011;43667;53.036;6.740;2024-01-15T05:57:56;15.65;;;3.15;;
57832;SDS011;43667;53.036;6.740;2024-01-15T06:00:22;7.03;;;1.52;;
57832;SDS011;43667;53.036;6.740;2024-01-15T06:02:48;11.85;;;1.77;;
57832;SDS011;43667;53.036;6.740;2024-01-15T06:05:14;11.45;;;1.85;;
57832;SDS011;43667;53.036;6.740;2024-01-15T06:07:41;13.10;;;1.67;;
57832;SDS011;43667;53.036;6.740;2024-01-15T06:10:07;16.92;;;1.50;;
57832;SDS011;43667;53.036;6.740;2024-01-15T06:12:33;20.02;;;1.70;;
57832;SDS011;43667;53.036;6.740;2024-01-15T06:14:59;14.32;;;1.67;;
57832;SDS011;43667;53.036;6.740;2024-01-15T06:17:25;13.18;;;1.90;;
57832;SDS011;43667;53.036;6.740;2024-01-15T06:19:51;17.17;;;1.75;;
57832;SDS011;43667;53.036;6.740;2024-01-15T06:22:17;18.00;;;2.25;;
57832;SDS011;43667;53.036;6.740;2024-01-15T06:24:43;10.48;;;2.22;;
57832;SDS011;43667;53.036;6.740;2024-01-15T06:27:09;10.05;;;2.40;;
57832;SDS011;43667;53.036;6.740;2024-01-15T06:29:37;16.35;;;2.17;;
57832;SDS011;43667;53.036;6.740;2024-01-15T06:32:04;11.05;;;1.58;;
57832;SDS011;43667;53.036;6.740;2024-01-15T06:34:30;15.05;;;1.95;;
57832;SDS011;43667;53.036;6.740;2024-01-15T06:36:56;13.40;;;2.13;;
57832;SDS011;43667;53.036;6.740;2024-01-15T06:39:22;15.10;;;2.47;;
57832;SDS011;43667;53.036;6.740;2024-01-15T06:41:48;18.75;;;3.35;;
57832;SDS011;43667;53.036;6.740;2024-01-15T06:44:14;13.23;;;2.10;;
57832;SDS011;43667;53.036;6.740;2024-01-15T06:46:44;20.63;;;2.15;;
57832;SDS011;43667;53.036;6.740;2024-01-15T06:49:10;23.13;;;2.30;;
57832;SDS011;43667;53.036;6.740;2024-01-15T06:51:36;21.58;;;2.53;;
57832;SDS011;43667;53.036;6.740;2024-01-15T06:54:02;23.20;;;2.63;;
57832;SDS011;43667;53.036;6.740;2024-01-15T06:56:28;29.95;;;2.53;;
57832;SDS011;43667;53.036;6.740;2024-01-15T06:58:54;18.60;;;2.45;;
57832;SDS011;43667;53.036;6.740;2024-01-15T07:01:20;18.42;;;2.33;;
57832;SDS011;43667;53.036;6.740;2024-01-15T07:03:46;15.80;;;2.17;;
57832;SDS011;43667;53.036;6.740;2024-01-15T07:06:12;17.58;;;3.15;;
57832;SDS011;43667;53.036;6.740;2024-01-15T07:08:39;23.55;;;2.95;;
57832;SDS011;43667;53.036;6.740;2024-01-15T07:11:05;15.48;;;2.53;;
57832;SDS011;43667;53.036;6.740;2024-01-15T07:13:32;30.25;;;2.80;;
57832;SDS011;43667;53.036;6.740;2024-01-15T07:15:58;24.70;;;3.22;;
57832;SDS011;43667;53.036;6.740;2024-01-15T07:18:24;21.58;;;3.20;;
57832;SDS011;43667;53.036;6.740;2024-01-15T07:20:51;14.15;;;2.47;;
57832;SDS011;43667;53.036;6.740;2024-01-15T07:23:17;24.40;;;4.20;;
57832;SDS011;43667;53.036;6.740;2024-01-15T07:25:43;18.48;;;2.60;;
57832;SDS011;43667;53.036;6.740;2024-01-15T07:28:09;33.97;;;2.97;;
57832;SDS011;43667;53.036;6.740;2024-01-15T07:30:35;17.95;;;2.63;;
57832;SDS011;43667;53.036;6.740;2024-01-15T07:33:03;17.48;;;2.55;;
57832;SDS011;43667;53.036;6.740;2024-01-15T07:35:30;25.30;;;2.55;;
57832;SDS011;43667;53.036;6.740;2024-01-15T07:37:56;22.98;;;3.03;;
57832;SDS011;43667;53.036;6.740;2024-01-15T07:40:22;22.08;;;3.03;;
57832;SDS011;43667;53.036;6.740;2024-01-15T07:42:49;20.85;;;2.58;;
57832;SDS011;43667;53.036;6.740;2024-01-15T07:45:15;16.92;;;2.83;;
57832;SDS011;43667;53.036;6.740;2024-01-15T07:47:41;24.50;;;3.10;;
57832;SDS011;43667;53.036;6.740;2024-01-15T07:50:07;22.98;;;2.70;;
57832;SDS011;43667;53.036;6.740;2024-01-15T07:52:33;20.15;;;3.65;;
57832;SDS011;43667;53.036;6.740;2024-01-15T07:54:59;28.23;;;3.10;;
57832;SDS011;43667;53.036;6.740;2024-01-15T07:57:26;18.13;;;2.22;;
57832;SDS011;43667;53.036;6.740;2024-01-15T07:59:52;18.30;;;2.53;;
57832;SDS011;43667;53.036;6.740;2024-01-15T08:02:18;17.90;;;2.13;;
57832;SDS011;43667;53.036;6.740;2024-01-15T08:04:44;16.90;;;2.10;;
57832;SDS011;43667;53.036;6.740;2024-01-15T08:07:11;14.77;;;2.50;;
57832;SDS011;43667;53.036;6.740;2024-01-15T08:09:38;18.08;;;2.30;;
57832;SDS011;43667;53.036;6.740;2024-01-15T08:12:04;14.57;;;2.10;;
57832;SDS011;43667;53.036;6.740;2024-01-15T08:14:31;18.67;;;2.83;;
57832;SDS011;43667;53.036;6.740;2024-01-15T08:16:57;16.10;;;1.95;;
57832;SDS011;43667;53.036;6.740;2024-01-15T08:19:23;15.07;;;2.03;;
57832;SDS011;43667;53.036;6.740;2024-01-15T08:21:49;14.27;;;1.80;;
57832;SDS011;43667;53.036;6.740;2024-01-15T08:24:16;17.85;;;2.42;;
57832;SDS011;43667;53.036;6.740;2024-01-15T08:26:42;16.98;;;2.55;;
57832;SDS011;43667;53.036;6.740;2024-01-15T08:29:08;20.55;;;2.47;;
57832;SDS011;43667;53.036;6.740;2024-01-15T08:31:34;17.27;;;2.25;;
57832;SDS011;43667;53.036;6.740;2024-01-15T08:34:00;17.15;;;2.28;;
57832;SDS011;43667;53.036;6.740;2024-01-15T08:36:27;12.13;;;1.77;;
57832;SDS011;43667;53.036;6.740;2024-01-15T08:38:54;16.75;;;1.80;;
57832;SDS011;43667;53.036;6.740;2024-01-15T08:41:20;13.20;;;2.10;;
57832;SDS011;43667;53.036;6.740;2024-01-15T08:43:46;10.25;;;1.30;;
57832;SDS011;43667;53.036;6.740;2024-01-15T08:46:13;13.45;;;1.67;;
57832;SDS011;43667;53.036;6.740;2024-01-15T08:48:39;11.80;;;1.80;;
57832;SDS011;43667;53.036;6.740;2024-01-15T08:51:05;13.20;;;1.77;;
57832;SDS011;43667;53.036;6.740;2024-01-15T08:53:31;15.70;;;1.92;;
57832;SDS011;43667;53.036;6.740;2024-01-15T08:55:57;13.50;;;2.40;;
57832;SDS011;43667;53.036;6.740;2024-01-15T08:58:23;15.05;;;2.20;;
57832;SDS011;43667;53.036;6.740;2024-01-15T09:00:50;16.35;;;1.95;;
57832;SDS011;43667;53.036;6.740;2024-01-15T09:03:16;19.85;;;2.83;;
57832;SDS011;43667;53.036;6.740;2024-01-15T09:05:42;11.80;;;1.65;;
57832;SDS011;43667;53.036;6.740;2024-01-15T09:08:08;14.10;;;1.95;;
57832;SDS011;43667;53.036;6.740;2024-01-15T09:10:35;8.88;;;2.38;;
57832;SDS011;43667;53.036;6.740;2024-01-15T09:13:01;20.88;;;2.20;;
57832;SDS011;43667;53.036;6.740;2024-01-15T09:15:29;12.38;;;2.22;;
57832;SDS011;43667;53.036;6.740;2024-01-15T09:17:55;16.77;;;2.22;;
57832;SDS011;43667;53.036;6.740;2024-01-15T09:20:23;22.73;;;2.40;;
57832;SDS011;43667;53.036;6.740;2024-01-15T09:22:51;10.40;;;1.90;;
57832;SDS011;43667;53.036;6.740;2024-01-15T09:25:17;11.45;;;1.75;;
57832;SDS011;43667;53.036;6.740;2024-01-15T09:27:44;12.70;;;1.77;;
57832;SDS011;43667;53.036;6.740;2024-01-15T09:30:10;14.27;;;2.50;;
57832;SDS011;43667;53.036;6.740;2024-01-15T09:32:36;9.40;;;1.70;;
57832;SDS011;43667;53.036;6.740;2024-01-15T09:35:02;6.38;;;1.52;;
57832;SDS011;43667;53.036;6.740;2024-01-15T09:37:28;7.35;;;1.17;;
57832;SDS011;43667;53.036;6.740;2024-01-15T09:39:54;9.52;;;1.35;;
57832;SDS011;43667;53.036;6.740;2024-01-15T09:42:21;5.70;;;1.10;;
57832;SDS011;43667;53.036;6.740;2024-01-15T09:44:48;5.82;;;1.00;;
57832;SDS011;43667;53.036;6.740;2024-01-15T09:47:14;8.52;;;1.02;;
57832;SDS011;43667;53.036;6.740;2024-01-15T09:49:41;5.85;;;1.08;;
57832;SDS011;43667;53.036;6.740;2024-01-15T09:52:07;8.80;;;1.08;;
57832;SDS011;43667;53.036;6.740;2024-01-15T09:54:33;10.70;;;1.20;;
57832;SDS011;43667;53.036;6.740;2024-01-15T09:57:00;5.85;;;1.20;;
57832;SDS011;43667;53.036;6.740;2024-01-15T09:59:26;12.45;;;1.77;;
57832;SDS011;43667;53.036;6.740;2024-01-15T10:01:52;9.32;;;1.20;;
57832;SDS011;43667;53.036;6.740;2024-01-15T10:04:19;11.02;;;1.20;;
57832;SDS011;43667;53.036;6.740;2024-01-15T10:06:45;9.57;;;1.42;;
57832;SDS011;43667;53.036;6.740;2024-01-15T10:09:12;8.80;;;1.60;;
57832;SDS011;43667;53.036;6.740;2024-01-15T10:11:41;8.93;;;1.70;;
57832;SDS011;43667;53.036;6.740;2024-01-15T10:14:08;8.05;;;1.50;;
57832;SDS011;43667;53.036;6.740;2024-01-15T10:16:37;10.05;;;1.52;;
57832;SDS011;43667;53.036;6.740;2024-01-15T10:19:03;8.93;;;1.50;;
57832;SDS011;43667;53.036;6.740;2024-01-15T10:21:31;9.18;;;1.10;;
57832;SDS011;43667;53.036;6.740;2024-01-15T10:23:59;14.65;;;1.80;;
57832;SDS011;43667;53.036;6.740;2024-01-15T10:26:26;18.83;;;2.20;;
57832;SDS011;43667;53.036;6.740;2024-01-15T10:28:52;14.02;;;2.30;;
57832;SDS011;43667;53.036;6.740;2024-01-15T10:31:18;12.10;;;1.80;;
57832;SDS011;43667;53.036;6.740;2024-01-15T10:33:49;10.20;;;1.55;;
57832;SDS011;43667;53.036;6.740;2024-01-15T10:36:16;14.60;;;2.15;;
57832;SDS011;43667;53.036;6.740;2024-01-15T10:38:46;12.73;;;2.00;;
57832;SDS011;43667;53.036;6.740;2024-01-15T10:41:12;16.33;;;2.60;;
57832;SDS011;43667;53.036;6.740;2024-01-15T10:43:38;18.25;;;2.30;;
57832;SDS011;43667;53.036;6.740;2024-01-15T10:46:06;11.30;;;1.70;;
57832;SDS011;43667;53.036;6.740;2024-01-15T10:48:33;15.27;;;2.08;;
57832;SDS011;43667;53.036;6.740;2024-01-15T10:51:00;15.55;;;2.33;;
57832;SDS011;43667;53.036;6.740;2024-01-15T10:53:28;14.30;;;2.60;;
57832;SDS011;43667;53.036;6.740;2024-01-15T10:55:56;16.08;;;2.45;;
57832;SDS011;43667;53.036;6.740;2024-01-15T10:58:23;14.88;;;1.73;;
57832;SDS011;43667;53.036;6.740;2024-01-15T11:00:49;11.35;;;2.05;;
57832;SDS011;43667;53.036;6.740;2024-01-15T11:03:16;15.77;;;3.10;;
57832;SDS011;43667;53.036;6.740;2024-01-15T11:05:42;11.45;;;1.75;;
57832;SDS011;43667;53.036;6.740;2024-01-15T11:08:09;11.43;;;1.92;;
57832;SDS011;43667;53.036;6.740;2024-01-15T11:10:46;9.40;;;1.92;;
57832;SDS011;43667;53.036;6.740;2024-01-15T11:13:21;12.45;;;1.83;;
57832;SDS011;43667;53.036;6.740;2024-01-15T11:18:34;5.32;;;1.42;;
57832;SDS011;43667;53.036;6.740;2024-01-15T11:26:26;5.50;;;0.95;;
57832;SDS011;43667;53.036;6.740;2024-01-15T11:28:54;5.45;;;0.98;;
57832;SDS011;43667;53.036;6.740;2024-01-15T11:31:20;5.25;;;1.30;;
57832;SDS011;43667;53.036;6.740;2024-01-15T11:33:49;6.68;;;1.20;;
57832;SDS011;43667;53.036;6.740;2024-01-15T11:36:16;7.00;;;1.00;;
57832;SDS011;43667;53.036;6.740;2024-01-15T11:38:42;5.50;;;0.73;;
57832;SDS011;43667;53.036;6.740;2024-01-15T11:41:14;3.72;;;0.63;;
57832;SDS011;43667;53.036;6.740;2024-01-15T11:43:43;3.83;;;0.50;;
57832;SDS011;43667;53.036;6.740;2024-01-15T11:46:12;3.17;;;0.70;;
57832;SDS011;43667;53.036;6.740;2024-01-15T11:48:42;4.15;;;0.55;;
57832;SDS011;43667;53.036;6.740;2024-01-15T11:51:12;3.20;;;0.70;;
57832;SDS011;43667;53.036;6.740;2024-01-15T11:53:45;2.53;;;0.77;;
57832;SDS011;43667;53.036;6.740;2024-01-15T11:56:16;4.95;;;0.88;;
57832;SDS011;43667;53.036;6.740;2024-01-15T11:58:42;9.40;;;1.13;;
57832;SDS011;43667;53.036;6.740;2024-01-15T12:01:10;2.88;;;0.73;;
57832;SDS011;43667;53.036;6.740;2024-01-15T12:03:36;2.83;;;0.75;;
57832;SDS011;43667;53.036;6.740;2024-01-15T12:06:04;8.48;;;1.20;;
57832;SDS011;43667;53.036;6.740;2024-01-15T12:08:30;6.15;;;0.85;;
57832;SDS011;43667;53.036;6.740;2024-01-15T12:10:56;5.10;;;0.70;;
57832;SDS011;43667;53.036;6.740;2024-01-15T12:13:22;4.78;;;0.60;;
57832;SDS011;43667;53.036;6.740;2024-01-15T12:15:49;5.30;;;0.88;;
57832;SDS011;43667;53.036;6.740;2024-01-15T12:18:16;3.05;;;0.45;;
57832;SDS011;43667;53.036;6.740;2024-01-15T12:20:43;2.67;;;0.50;;
57832;SDS011;43667;53.036;6.740;2024-01-15T12:23:11;4.68;;;0.60;;
57832;SDS011;43667;53.036;6.740;2024-01-15T12:25:38;2.42;;;0.63;;
57832;SDS011;43667;53.036;6.740;2024-01-15T12:28:05;2.92;;;0.60;;
57832;SDS011;43667;53.036;6.740;2024-01-15T12:30:32;1.33;;;0.43;;
57832;SDS011;43667;53.036;6.740;2024-01-15T12:33:05;3.63;;;0.47;;
57832;SDS011;43667;53.036;6.740;2024-01-15T12:35:33;10.38;;;0.75;;
57832;SDS011;43667;53.036;6.740;2024-01-15T12:37:59;2.45;;;0.43;;
57832;SDS011;43667;53.036;6.740;2024-01-15T12:40:27;3.00;;;0.40;;
57832;SDS011;43667;53.036;6.740;2024-01-15T12:42:53;3.85;;;0.70;;
57832;SDS011;43667;53.036;6.740;2024-01-15T12:45:20;3.88;;;0.85;;
57832;SDS011;43667;53.036;6.740;2024-01-15T12:47:46;3.67;;;0.95;;
57832;SDS011;43667;53.036;6.740;2024-01-15T12:50:12;4.10;;;0.50;;
57832;SDS011;43667;53.036;6.740;2024-01-15T12:52:42;5.32;;;0.90;;
57832;SDS011;43667;53.036;6.740;2024-01-15T12:55:08;2.70;;;0.60;;
57832;SDS011;43667;53.036;6.740;2024-01-15T12:57:35;3.47;;;0.60;;
57832;SDS011;43667;53.036;6.740;2024-01-15T13:00:01;4.05;;;0.70;;
57832;SDS011;43667;53.036;6.740;2024-01-15T13:02:31;4.45;;;0.85;;
57832;SDS011;43667;53.036;6.740;2024-01-15T13:04:58;5.15;;;1.10;;
57832;SDS011;43667;53.036;6.740;2024-01-15T13:07:24;4.95;;;0.90;;
57832;SDS011;43667;53.036;6.740;2024-01-15T13:09:50;6.72;;;0.98;;
57832;SDS011;43667;53.036;6.740;2024-01-15T13:12:19;6.97;;;1.30;;
57832;SDS011;43667;53.036;6.740;2024-01-15T13:14:45;11.70;;;1.42;;
57832;SDS011;43667;53.036;6.740;2024-01-15T13:17:12;3.13;;;1.00;;
57832;SDS011;43667;53.036;6.740;2024-01-15T13:19:39;9.02;;;1.13;;
57832;SDS011;43667;53.036;6.740;2024-01-15T13:22:05;6.15;;;1.30;;
57832;SDS011;43667;53.036;6.740;2024-01-15T13:24:34;8.18;;;1.40;;
57832;SDS011;43667;53.036;6.740;2024-01-15T13:27:01;9.40;;;1.55;;
57832;SDS011;43667;53.036;6.740;2024-01-15T13:29:29;11.48;;;1.50;;
57832;SDS011;43667;53.036;6.740;2024-01-15T13:31:55;7.55;;;1.52;;
57832;SDS011;43667;53.036;6.740;2024-01-15T13:34:21;9.77;;;1.67;;
57832;SDS011;43667;53.036;6.740;2024-01-15T13:36:47;9.85;;;1.63;;
57832;SDS011;43667;53.036;6.740;2024-01-15T13:39:15;12.85;;;1.48;;
57832;SDS011;43667;53.036;6.740;2024-01-15T13:41:45;9.18;;;1.90;;
57832;SDS011;43667;53.036;6.740;2024-01-15T13:44:11;9.48;;;1.70;;
57832;SDS011;43667;53.036;6.740;2024-01-15T13:46:37;12.23;;;1.70;;
57832;SDS011;43667;53.036;6.740;2024-01-15T13:49:03;10.38;;;1.65;;
57832;SDS011;43667;53.036;6.740;2024-01-15T13:51:32;10.32;;;1.65;;
57832;SDS011;43667;53.036;6.740;2024-01-15T13:53:58;10.98;;;1.58;;
57832;SDS011;43667;53.036;6.740;2024-01-15T13:56:24;8.50;;;1.70;;
57832;SDS011;43667;53.036;6.740;2024-01-15T13:58:50;11.25;;;1.50;;
57832;SDS011;43667;53.036;6.740;2024-01-15T14:01:17;11.80;;;1.48;;
57832;SDS011;43667;53.036;6.740;2024-01-15T14:03:43;14.38;;;1.73;;
57832;SDS011;43667;53.036;6.740;2024-01-15T14:06:09;7.93;;;1.45;;
57832;SDS011;43667;53.036;6.740;2024-01-15T14:08:36;9.55;;;1.40;;
57832;SDS011;43667;53.036;6.740;2024-01-15T14:11:02;11.05;;;1.50;;
57832;SDS011;43667;53.036;6.740;2024-01-15T14:13:28;6.97;;;1.67;;
57832;SDS011;43667;53.036;6.740;2024-01-15T14:15:54;10.43;;;2.00;;
57832;SDS011;43667;53.036;6.740;2024-01-15T14:18:20;10.50;;;2.65;;
57832;SDS011;43667;53.036;6.740;2024-01-15T14:20:47;13.52;;;1.85;;
57832;SDS011;43667;53.036;6.740;2024-01-15T14:23:13;11.40;;;1.88;;
57832;SDS011;43667;53.036;6.740;2024-01-15T14:25:39;15.10;;;3.20;;
57832;SDS011;43667;53.036;6.740;2024-01-15T14:28:05;12.00;;;2.13;;
57832;SDS011;43667;53.036;6.740;2024-01-15T14:30:31;12.63;;;1.80;;
57832;SDS011;43667;53.036;6.740;2024-01-15T14:32:57;15.93;;;2.05;;
57832;SDS011;43667;53.036;6.740;2024-01-15T14:35:23;16.08;;;1.95;;
57832;SDS011;43667;53.036;6.740;2024-01-15T14:37:49;15.68;;;2.45;;
57832;SDS011;43667;53.036;6.740;2024-01-15T14:40:19;13.50;;;1.80;;
57832;SDS011;43667;53.036;6.740;2024-01-15T14:42:45;17.10;;;2.15;;